Terminal Aerodrome Forecast
Issued by NWS Shreveport, LA

Home | Current Version | Previous Version | Text Only | Print | Product List | Glossary On
Versions: 1 2 3 4 5 6 7 8 9 10 11 12 13 14 15 16
326
FTUS44 KSHV 272320
TAFTYR
TAF
KTYR 272320Z 2800/2824 09005KT P6SM FEW080
      TEMPO 2812/2815 5SM BR BKN025
     FM281500 16009KT P6SM SCT025 BKN050
     FM281800 16008KT P6SM SCT050=

USA.gov is the U.S. government's official web portal to all federal, state and local government web resources and services.